sensor_id;sensor_type;location;lat;lon;timestamp;pressure;altitude;pressure_sealevel;temperature;humidity
9110;BME280;4590;51.462;6.692;2024-01-15T00:11:06;100064.00;;;2.62;77.66
9110;BME280;4590;51.462;6.692;2024-01-15T00:31:58;100049.31;;;2.68;77.51
9110;BME280;4590;51.462;6.692;2024-01-15T01:23:24;100022.16;;;2.83;77.68
9110;BME280;4590;51.462;6.692;2024-01-15T01:47:15;100023.22;;;2.87;77.50
9110;BME280;4590;51.462;6.692;2024-01-15T01:54:03;100027.03;;;2.86;77.65
9110;BME280;4590;51.462;6.692;2024-01-15T01:57:38;100033.03;;;2.88;77.67
9110;BME280;4590;51.462;6.692;2024-01-15T02:07:28;100025.13;;;2.92;77.71
9110;BME280;4590;51.462;6.692;2024-01-15T02:13:15;100019.16;;;2.95;77.76
9110;BME280;4590;51.462;6.692;2024-01-15T02:15:40;100028.94;;;2.96;77.31
9110;BME280;4590;51.462;6.692;2024-01-15T02:18:06;100028.69;;;2.97;77.76
9110;BME280;4590;51.462;6.692;2024-01-15T02:20:35;100035.19;;;3.01;77.42
9110;BME280;4590;51.462;6.692;2024-01-15T02:23:10;100031.63;;;3.01;77.57
9110;BME280;4590;51.462;6.692;2024-01-15T02:25:37;100027.56;;;3.03;77.26
9110;BME280;4590;51.462;6.692;2024-01-15T02:28:04;100014.53;;;3.05;77.49
9110;BME280;4590;51.462;6.692;2024-01-15T02:30:30;100018.59;;;3.08;77.29
9110;BME280;4590;51.462;6.692;2024-01-15T02:32:56;100035.72;;;3.08;77.51
9110;BME280;4590;51.462;6.692;2024-01-15T02:35:21;100027.03;;;3.06;77.14
9110;BME280;4590;51.462;6.692;2024-01-15T02:37:47;100024.31;;;3.06;77.28
9110;BME280;4590;51.462;6.692;2024-01-15T02:40:12;100024.84;;;3.08;77.36
9110;BME280;4590;51.462;6.692;2024-01-15T02:42:37;100026.75;;;3.08;77.15
9110;BME280;4590;51.462;6.692;2024-01-15T02:45:03;100031.09;;;3.09;77.19
9110;BME280;4590;51.462;6.692;2024-01-15T02:47:28;100024.03;;;3.08;77.34
9110;BME280;4590;51.462;6.692;2024-01-15T02:49:54;100024.03;;;3.08;77.11
9110;BME280;4590;51.462;6.692;2024-01-15T02:52:19;100018.59;;;3.08;76.78
9110;BME280;4590;51.462;6.692;2024-01-15T02:54:44;100025.13;;;3.07;77.70
9110;BME280;4590;51.462;6.692;2024-01-15T02:57:09;100021.59;;;3.06;77.68
9110;BME280;4590;51.462;6.692;2024-01-15T02:59:35;100026.75;;;3.03;76.89
9110;BME280;4590;51.462;6.692;2024-01-15T03:02:00;100014.25;;;3.07;77.39
9110;BME280;4590;51.462;6.692;2024-01-15T03:04:25;100014.53;;;3.05;77.47
9110;BME280;4590;51.462;6.692;2024-01-15T03:06:50;100011.53;;;3.07;77.55
9110;BME280;4590;51.462;6.692;2024-01-15T03:09:16;100009.09;;;3.05;76.77
9110;BME280;4590;51.462;6.692;2024-01-15T03:11:41;100012.63;;;3.06;76.57
9110;BME280;4590;51.462;6.692;2024-01-15T03:14:07;100012.06;;;3.04;77.30
9110;BME280;4590;51.462;6.692;2024-01-15T03:16:32;100018.06;;;3.01;77.35
9110;BME280;4590;51.462;6.692;2024-01-15T03:18:57;100010.72;;;3.01;76.89
9110;BME280;4590;51.462;6.692;2024-01-15T03:21:23;100019.69;;;3.02;76.83
9110;BME280;4590;51.462;6.692;2024-01-15T03:59:48;100001.22;;;2.83;77.10
9110;BME280;4590;51.462;6.692;2024-01-15T04:16:57;99977.59;;;2.84;76.67
9110;BME280;4590;51.462;6.692;2024-01-15T04:23:54;99982.50;;;2.77;77.03
9110;BME280;4590;51.462;6.692;2024-01-15T04:27:26;99967.56;;;2.79;77.06
9110;BME280;4590;51.462;6.692;2024-01-15T04:34:48;99965.38;;;2.76;76.44
9110;BME280;4590;51.462;6.692;2024-01-15T04:38:11;99965.38;;;2.76;76.96
9110;BME280;4590;51.462;6.692;2024-01-15T04:52:31;99960.22;;;2.75;76.96
9110;BME280;4590;51.462;6.692;2024-01-15T04:56:16;99961.03;;;2.75;76.98
9110;BME280;4590;51.462;6.692;2024-01-15T05:17:00;99946.91;;;2.78;76.84
9110;BME280;4590;51.462;6.692;2024-01-15T05:20:29;99945.00;;;2.79;77.09
9110;BME280;4590;51.462;6.692;2024-01-15T05:24:19;99933.59;;;2.82;76.53
9110;BME280;4590;51.462;6.692;2024-01-15T05:55:56;99925.41;;;2.92;76.71
9110;BME280;4590;51.462;6.692;2024-01-15T06:26:35;99911.25;;;3.00;76.78
9110;BME280;4590;51.462;6.692;2024-01-15T06:40:14;99897.66;;;3.05;76.47
9110;BME280;4590;51.462;6.692;2024-01-15T06:43:56;99906.91;;;2.99;76.23
9110;BME280;4590;51.462;6.692;2024-01-15T06:47:41;99904.50;;;2.98;75.94
9110;BME280;4590;51.462;6.692;2024-01-15T06:58:06;99906.91;;;2.99;77.09
9110;BME280;4590;51.462;6.692;2024-01-15T07:12:03;99915.63;;;2.96;76.51
9110;BME280;4590;51.462;6.692;2024-01-15T07:22:28;99902.28;;;3.00;77.14
9110;BME280;4590;51.462;6.692;2024-01-15T07:25:57;99900.91;;;3.02;76.86
9110;BME280;4590;51.462;6.692;2024-01-15T07:39:30;99902.03;;;2.96;76.55
9110;BME280;4590;51.462;6.692;2024-01-15T07:48:22;99899.88;;;2.98;76.81
9110;BME280;4590;51.462;6.692;2024-01-15T07:50:47;99901.19;;;3.01;76.72
9110;BME280;4590;51.462;6.692;2024-01-15T07:53:12;99903.09;;;3.00;76.83
9110;BME280;4590;51.462;6.692;2024-01-15T07:55:38;99907.47;;;2.96;76.90
9110;BME280;4590;51.462;6.692;2024-01-15T07:58:03;99908.03;;;2.93;76.57
9110;BME280;4590;51.462;6.692;2024-01-15T08:00:28;99909.38;;;2.91;76.61
9110;BME280;4590;51.462;6.692;2024-01-15T08:02:54;99909.13;;;2.92;76.81
9110;BME280;4590;51.462;6.692;2024-01-15T08:05:19;99906.94;;;2.89;76.91
9110;BME280;4590;51.462;6.692;2024-01-15T08:07:46;99911.56;;;2.89;77.10
9110;BME280;4590;51.462;6.692;2024-01-15T08:18:10;99903.69;;;2.87;77.31
9110;BME280;4590;51.462;6.692;2024-01-15T08:20:36;99908.03;;;2.88;76.71
9110;BME280;4590;51.462;6.692;2024-01-15T08:23:01;99906.13;;;2.89;76.88
9110;BME280;4590;51.462;6.692;2024-01-15T08:25:27;99912.66;;;2.88;77.35
9110;BME280;4590;51.462;6.692;2024-01-15T08:27:52;99908.84;;;2.89;77.33
9110;BME280;4590;51.462;6.692;2024-01-15T08:30:18;99918.09;;;2.88;76.85
9110;BME280;4590;51.462;6.692;2024-01-15T08:32:49;99905.31;;;2.88;76.49
9110;BME280;4590;51.462;6.692;2024-01-15T08:35:15;99911.56;;;2.89;76.94
9110;BME280;4590;51.462;6.692;2024-01-15T08:37:40;99911.03;;;2.87;77.56
9110;BME280;4590;51.462;6.692;2024-01-15T08:40:06;99910.19;;;2.91;76.84
9110;BME280;4590;51.462;6.692;2024-01-15T08:42:31;99924.59;;;2.92;76.79
9110;BME280;4590;51.462;6.692;2024-01-15T08:44:57;99932.75;;;2.92;77.17
9110;BME280;4590;51.462;6.692;2024-01-15T08:51:27;99937.41;;;2.71;76.56
9110;BME280;4590;51.462;6.692;2024-01-15T09:00:31;99930.63;;;2.68;76.93
9110;BME280;4590;51.462;6.692;2024-01-15T09:02:56;99930.09;;;2.66;76.91
9110;BME280;4590;51.462;6.692;2024-01-15T09:05:22;99931.19;;;2.65;77.31
9110;BME280;4590;51.462;6.692;2024-01-15T09:07:47;99926.03;;;2.64;77.02
9110;BME280;4590;51.462;6.692;2024-01-15T09:10:13;99933.91;;;2.65;77.39
9110;BME280;4590;51.462;6.692;2024-01-15T09:12:38;99949.13;;;2.66;76.54
9110;BME280;4590;51.462;6.692;2024-01-15T09:15:04;99940.66;;;2.68;76.95
9110;BME280;4590;51.462;6.692;2024-01-15T09:17:30;99947.22;;;2.67;76.83
9110;BME280;4590;51.462;6.692;2024-01-15T09:19:55;99937.69;;;2.64;77.29
9110;BME280;4590;51.462;6.692;2024-01-15T09:22:22;99935.00;;;2.64;77.49
9110;BME280;4590;51.462;6.692;2024-01-15T09:24:47;99945.59;;;2.66;77.31
9110;BME280;4590;51.462;6.692;2024-01-15T09:27:12;99935.22;;;2.68;76.95
9110;BME280;4590;51.462;6.692;2024-01-15T09:29:38;99938.75;;;2.68;77.36
9110;BME280;4590;51.462;6.692;2024-01-15T09:32:05;99939.03;;;2.72;77.51
9110;BME280;4590;51.462;6.692;2024-01-15T09:34:31;99941.47;;;2.73;77.89
9110;BME280;4590;51.462;6.692;2024-01-15T09:36:56;99933.88;;;2.75;77.07
9110;BME280;4590;51.462;6.692;2024-01-15T09:39:22;99942.03;;;2.80;77.65
9110;BME280;4590;51.462;6.692;2024-01-15T09:41:49;99935.50;;;2.81;77.12
9110;BME280;4590;51.462;6.692;2024-01-15T09:44:15;99946.66;;;2.80;77.46
9110;BME280;4590;51.462;6.692;2024-01-15T09:46:41;99942.28;;;2.84;77.04
9110;BME280;4590;51.462;6.692;2024-01-15T09:49:08;99938.72;;;2.83;77.13
9110;BME280;4590;51.462;6.692;2024-01-15T09:51:35;99946.09;;;2.83;77.46
9110;BME280;4590;51.462;6.692;2024-01-15T09:54:02;99940.63;;;2.88;76.89
9110;BME280;4590;51.462;6.692;2024-01-15T09:56:27;99946.63;;;2.90;77.06
9110;BME280;4590;51.462;6.692;2024-01-15T09:58:52;99946.63;;;2.90;76.91
9110;BME280;4590;51.462;6.692;2024-01-15T10:01:19;99936.03;;;2.89;76.83
9110;BME280;4590;51.462;6.692;2024-01-15T10:03:45;99936.56;;;2.91;77.32
9110;BME280;4590;51.462;6.692;2024-01-15T10:06:11;99937.38;;;2.91;77.36
9110;BME280;4590;51.462;6.692;2024-01-15T10:08:40;99941.19;;;2.90;77.67
9110;BME280;4590;51.462;6.692;2024-01-15T10:11:05;99926.22;;;2.93;77.21
9110;BME280;4590;51.462;6.692;2024-01-15T10:13:31;99924.06;;;2.90;77.36
9110;BME280;4590;51.462;6.692;2024-01-15T10:15:56;99924.06;;;2.90;77.46
9110;BME280;4590;51.462;6.692;2024-01-15T10:18:23;99927.31;;;2.92;77.45
9110;BME280;4590;51.462;6.692;2024-01-15T10:20:48;99925.16;;;2.94;77.22
9110;BME280;4590;51.462;6.692;2024-01-15T10:23:14;99928.69;;;2.94;76.89
9110;BME280;4590;51.462;6.692;2024-01-15T10:25:43;99931.94;;;2.91;76.87
9110;BME280;4590;51.462;6.692;2024-01-15T10:28:09;99922.69;;;2.97;77.39
9110;BME280;4590;51.462;6.692;2024-01-15T10:30:35;99927.84;;;2.99;77.12
9110;BME280;4590;51.462;6.692;2024-01-15T10:33:01;99930.00;;;3.02;77.04
9110;BME280;4590;51.462;6.692;2024-01-15T10:35:32;99925.66;;;3.01;77.57
9110;BME280;4590;51.462;6.692;2024-01-15T10:38:01;99930.28;;;3.00;77.28
9110;BME280;4590;51.462;6.692;2024-01-15T10:40:28;99927.00;;;3.03;76.86
9110;BME280;4590;51.462;6.692;2024-01-15T10:42:54;99930.28;;;3.00;76.87
9110;BME280;4590;51.462;6.692;2024-01-15T10:45:19;99930.28;;;3.00;77.32
9110;BME280;4590;51.462;6.692;2024-01-15T10:47:45;99929.72;;;3.03;77.42
9110;BME280;4590;51.462;6.692;2024-01-15T10:50:11;99933.00;;;3.05;77.62
9110;BME280;4590;51.462;6.692;2024-01-15T10:52:37;99939.50;;;3.09;76.86
9110;BME280;4590;51.462;6.692;2024-01-15T10:55:03;99938.16;;;3.02;77.53
9110;BME280;4590;51.462;6.692;2024-01-15T10:57:29;99930.53;;;3.14;76.75
9110;BME280;4590;51.462;6.692;2024-01-15T10:59:55;99939.78;;;3.13;76.94
9110;BME280;4590;51.462;6.692;2024-01-15T11:02:20;99931.56;;;3.18;77.29
9110;BME280;4590;51.462;6.692;2024-01-15T11:04:46;99935.66;;;3.21;77.43
9110;BME280;4590;51.462;6.692;2024-01-15T11:07:11;99935.09;;;3.24;77.36
9110;BME280;4590;51.462;6.692;2024-01-15T11:09:38;99940.53;;;3.29;77.50
9110;BME280;4590;51.462;6.692;2024-01-15T11:12:11;99934.56;;;3.27;76.72
9110;BME280;4590;51.462;6.692;2024-01-15T11:14:40;99932.09;;;3.30;76.93
9110;BME280;4590;51.462;6.692;2024-01-15T11:17:09;99937.78;;;3.34;76.89
9110;BME280;4590;51.462;6.692;2024-01-15T11:19:36;99934.78;;;3.35;76.81
9110;BME280;4590;51.462;6.692;2024-01-15T11:22:03;99938.31;;;3.36;76.97
9110;BME280;4590;51.462;6.692;2024-01-15T11:24:38;99937.22;;;3.37;77.11
9110;BME280;4590;51.462;6.692;2024-01-15T11:27:06;99927.69;;;3.39;76.73
9110;BME280;4590;51.462;6.692;2024-01-15T11:29:36;99926.59;;;3.40;76.36
9110;BME280;4590;51.462;6.692;2024-01-15T11:32:07;99927.16;;;3.42;76.52
9110;BME280;4590;51.462;6.692;2024-01-15T11:37:17;99934.22;;;3.43;76.98
9110;BME280;4590;51.462;6.692;2024-01-15T11:39:43;99948.63;;;3.44;76.89
9110;BME280;4590;51.462;6.692;2024-01-15T11:42:13;99938.84;;;3.43;76.96
9110;BME280;4590;51.462;6.692;2024-01-15T11:44:39;99927.97;;;3.43;76.83
9110;BME280;4590;51.462;6.692;2024-01-15T11:47:10;99930.16;;;3.41;76.80
9110;BME280;4590;51.462;6.692;2024-01-15T11:50:00;99929.63;;;3.34;76.50
9110;BME280;4590;51.462;6.692;2024-01-15T11:52:38;99929.34;;;3.40;76.83
9110;BME280;4590;51.462;6.692;2024-01-15T11:55:30;99924.97;;;3.39;77.04
9110;BME280;4590;51.462;6.692;2024-01-15T11:58:00;99920.31;;;3.50;77.09
9110;BME280;4590;51.462;6.692;2024-01-15T12:00:27;99925.19;;;3.48;77.13
9110;BME280;4590;51.462;6.692;2024-01-15T12:02:53;99921.13;;;3.50;76.85
9110;BME280;4590;51.462;6.692;2024-01-15T12:05:21;99930.63;;;3.53;76.74
9110;BME280;4590;51.462;6.692;2024-01-15T12:07:48;99927.34;;;3.56;77.07
9110;BME280;4590;51.462;6.692;2024-01-15T12:10:18;99924.06;;;3.59;76.77
9110;BME280;4590;51.462;6.692;2024-01-15T12:12:58;99924.88;;;3.60;76.67
9110;BME280;4590;51.462;6.692;2024-01-15T12:15:25;99929.47;;;3.64;76.76
9110;BME280;4590;51.462;6.692;2024-01-15T12:17:51;99930.81;;;3.67;77.14
9110;BME280;4590;51.462;6.692;2024-01-15T12:20:17;99922.09;;;3.70;77.17
9110;BME280;4590;51.462;6.692;2024-01-15T12:22:43;99924.81;;;3.70;77.06
9110;BME280;4590;51.462;6.692;2024-01-15T12:25:08;99921.47;;;3.83;77.02
9110;BME280;4590;51.462;6.692;2024-01-15T12:27:34;99923.91;;;3.84;77.04
9110;BME280;4590;51.462;6.692;2024-01-15T12:29:59;99917.91;;;3.87;76.43
9110;BME280;4590;51.462;6.692;2024-01-15T12:32:25;99930.16;;;3.90;76.55
9110;BME280;4590;51.462;6.692;2024-01-15T12:34:50;99933.09;;;3.94;76.53
9110;BME280;4590;51.462;6.692;2024-01-15T12:37:19;99932.53;;;3.97;76.51
9110;BME280;4590;51.462;6.692;2024-01-15T12:39:45;99931.69;;;4.01;76.80
9110;BME280;4590;51.462;6.692;2024-01-15T12:42:10;99940.13;;;4.05;76.11
9110;BME280;4590;51.462;6.692;2024-01-15T12:44:36;99944.19;;;4.07;75.86
9110;BME280;4590;51.462;6.692;2024-01-15T12:47:04;99950.69;;;4.11;76.20
9110;BME280;4590;51.462;6.692;2024-01-15T12:49:29;99952.09;;;4.09;75.99
9110;BME280;4590;51.462;6.692;2024-01-15T12:51:56;99945.31;;;4.01;75.92
9110;BME280;4590;51.462;6.692;2024-01-15T12:54:23;99950.47;;;4.08;76.18
9110;BME280;4590;51.462;6.692;2024-01-15T12:56:49;99953.69;;;4.10;75.81
9110;BME280;4590;51.462;6.692;2024-01-15T12:59:14;99944.75;;;4.04;75.91
9110;BME280;4590;51.462;6.692;2024-01-15T13:01:40;99948.06;;;3.96;75.89
9110;BME280;4590;51.462;6.692;2024-01-15T13:04:06;99957.56;;;4.04;75.63
9110;BME280;4590;51.462;6.692;2024-01-15T13:06:34;99952.38;;;4.07;75.62
9110;BME280;4590;51.462;6.692;2024-01-15T13:08:59;99956.41;;;4.10;75.72
9110;BME280;4590;51.462;6.692;2024-01-15T13:11:24;99956.41;;;4.10;75.79
9110;BME280;4590;51.462;6.692;2024-01-15T13:13:57;99957.75;;;4.12;75.79
9110;BME280;4590;51.462;6.692;2024-01-15T13:17:14;99960.28;;;4.04;75.21
9110;BME280;4590;51.462;6.692;2024-01-15T13:20:10;99956.47;;;4.05;75.75
9110;BME280;4590;51.462;6.692;2024-01-15T13:23:46;99966.53;;;4.04;75.64
9110;BME280;4590;51.462;6.692;2024-01-15T13:27:02;99967.06;;;4.06;75.83
9110;BME280;4590;51.462;6.692;2024-01-15T13:30:10;99969.75;;;4.11;75.64
9110;BME280;4590;51.462;6.692;2024-01-15T13:33:05;99971.16;;;4.04;75.50
9110;BME280;4590;51.462;6.692;2024-01-15T13:36:31;99971.16;;;4.04;75.40
9110;BME280;4590;51.462;6.692;2024-01-15T13:40:00;99976.06;;;4.02;75.32
9110;BME280;4590;51.462;6.692;2024-01-15T13:43:03;99980.69;;;4.01;75.50
9110;BME280;4590;51.462;6.692;2024-01-15T13:45:52;99982.81;;;4.09;75.73
9110;BME280;4590;51.462;6.692;2024-01-15T13:49:14;99992.13;;;4.03;75.32
9110;BME280;4590;51.462;6.692;2024-01-15T13:52:16;99992.69;;;4.00;75.25
9110;BME280;4590;51.462;6.692;2024-01-15T13:55:27;99991.28;;;4.08;75.23
9110;BME280;4590;51.462;6.692;2024-01-15T13:58:49;100001.94;;;3.99;75.08
9110;BME280;4590;51.462;6.692;2024-01-15T14:02:20;99999.53;;;3.93;74.64
9110;BME280;4590;51.462;6.692;2024-01-15T14:05:17;100012.03;;;3.94;75.12
9110;BME280;4590;51.462;6.692;2024-01-15T14:08:15;100017.78;;;3.92;75.23
9110;BME280;4590;51.462;6.692;2024-01-15T14:11:17;100011.53;;;3.92;74.91
9110;BME280;4590;51.462;6.692;2024-01-15T14:14:09;100023.19;;;3.97;75.28
9110;BME280;4590;51.462;6.692;2024-01-15T14:16:57;100027.28;;;3.95;75.14
9110;BME280;4590;51.462;6.692;2024-01-15T14:20:29;100036.16;;;3.61;74.97
9110;BME280;4590;51.462;6.692;2024-01-15T14:23:32;100033.06;;;3.78;75.13
9110;BME280;4590;51.462;6.692;2024-01-15T14:26:04;100028.69;;;3.87;75.15
9110;BME280;4590;51.462;6.692;2024-01-15T14:29:21;100024.34;;;3.81;74.87
9110;BME280;4590;51.462;6.692;2024-01-15T14:32:43;100026.78;;;3.87;75.38
9110;BME280;4590;51.462;6.692;2024-01-15T14:35:43;100027.88;;;3.81;75.03
9110;BME280;4590;51.462;6.692;2024-01-15T14:38:35;100036.03;;;3.81;74.73
9110;BME280;4590;51.462;6.692;2024-01-15T14:41:11;100045.28;;;3.85;75.10
9110;BME280;4590;51.462;6.692;2024-01-15T14:44:07;100045.81;;;3.87;74.94
9110;BME280;4590;51.462;6.692;2024-01-15T14:47:28;100046.38;;;3.79;75.02
9110;BME280;4590;51.462;6.692;2024-01-15T14:50:48;100060.00;;;3.79;74.34
9110;BME280;4590;51.462;6.692;2024-01-15T14:53:53;100067.09;;;3.75;73.63
9110;BME280;4590;51.462;6.692;2024-01-15T14:57:13;100081.81;;;3.69;73.85
9110;BME280;4590;51.462;6.692;2024-01-15T15:00:31;100080.44;;;3.67;73.77
9110;BME280;4590;51.462;6.692;2024-01-15T15:03:00;100086.72;;;3.67;74.35
9110;BME280;4590;51.462;6.692;2024-01-15T15:06:18;100101.44;;;3.56;74.26
9110;BME280;4590;51.462;6.692;2024-01-15T15:09:05;100101.97;;;3.53;74.37
9110;BME280;4590;51.462;6.692;2024-01-15T15:11:56;100101.97;;;3.48;73.97
9110;BME280;4590;51.462;6.692;2024-01-15T15:15:19;100117.25;;;3.44;74.19
9110;BME280;4590;51.462;6.692;2024-01-15T15:18:24;100116.69;;;3.32;74.97
9110;BME280;4590;51.462;6.692;2024-01-15T15:21:24;100121.31;;;3.31;74.79
9110;BME280;4590;51.462;6.692;2024-01-15T15:24:22;100124.34;;;3.30;75.10
9110;BME280;4590;51.462;6.692;2024-01-15T15:27:25;100124.84;;;3.37;74.63
9110;BME280;4590;51.462;6.692;2024-01-15T15:30:02;100130.84;;;3.39;74.76
9110;BME280;4590;51.462;6.692;2024-01-15T15:32:30;100150.13;;;3.37;75.00
9110;BME280;4590;51.462;6.692;2024-01-15T15:35:26;100147.97;;;3.34;74.37
9110;BME280;4590;51.462;6.692;2024-01-15T15:37:57;100159.38;;;3.36;74.94
9110;BME280;4590;51.462;6.692;2024-01-15T15:40:33;100166.19;;;3.34;74.36
9110;BME280;4590;51.462;6.692;2024-01-15T15:43:16;100164.31;;;3.29;74.02
9110;BME280;4590;51.462;6.692;2024-01-15T15:46:07;100164.56;;;3.28;74.20
9110;BME280;4590;51.462;6.692;2024-01-15T15:49:14;100156.69;;;3.26;74.50
9110;BME280;4590;51.462;6.692;2024-01-15T15:52:01;100170.81;;;3.23;73.99
9110;BME280;4590;51.462;6.692;2024-01-15T15:55:00;100173.78;;;3.16;73.93
9110;BME280;4590;51.462;6.692;2024-01-15T15:57:59;100171.06;;;3.16;74.43
9110;BME280;4590;51.462;6.692;2024-01-15T16:00:41;100178.97;;;3.13;74.39
9110;BME280;4590;51.462;6.692;2024-01-15T16:03:44;100180.59;;;3.09;74.48
9110;BME280;4590;51.462;6.692;2024-01-15T16:06:10;100181.41;;;3.09;74.67
9110;BME280;4590;51.462;6.692;2024-01-15T16:08:42;100182.75;;;3.02;74.40
9110;BME280;4590;51.462;6.692;2024-01-15T16:11:12;100188.44;;;3.00;74.35
9110;BME280;4590;51.462;6.692;2024-01-15T16:13:48;100195.28;;;2.98;74.33
9110;BME280;4590;51.462;6.692;2024-01-15T16:17:09;100198.22;;;2.91;74.92
9110;BME280;4590;51.462;6.692;2024-01-15T16:20:04;100203.13;;;2.89;74.59
9110;BME280;4590;51.462;6.692;2024-01-15T16:22:47;100194.97;;;2.89;74.83
9110;BME280;4590;51.462;6.692;2024-01-15T16:25:25;100204.19;;;2.88;74.38
9110;BME280;4590;51.462;6.692;2024-01-15T16:28:17;100214.25;;;2.88;74.47
9110;BME280;4590;51.462;6.692;2024-01-15T16:31:14;100204.75;;;2.80;74.33
9110;BME280;4590;51.462;6.692;2024-01-15T16:33:43;100213.16;;;2.83;75.11
9110;BME280;4590;51.462;6.692;2024-01-15T16:36:16;100225.38;;;2.81;75.26
9110;BME280;4590;51.462;6.692;2024-01-15T16:38:52;100215.88;;;2.78;74.57
9110;BME280;4590;51.462;6.692;2024-01-15T16:41:35;100229.19;;;2.80;74.87
9110;BME280;4590;51.462;6.692;2024-01-15T16:44:53;100229.97;;;2.75;74.88
9110;BME280;4590;51.462;6.692;2024-01-15T16:47:50;100229.97;;;2.75;74.83
9110;BME280;4590;51.462;6.692;2024-01-15T16:51:02;100227.00;;;2.77;74.68
9110;BME280;4590;51.462;6.692;2024-01-15T16:53:52;100232.94;;;2.69;74.70
9110;BME280;4590;51.462;6.692;2024-01-15T16:56:22;100229.16;;;2.75;75.49
9110;BME280;4590;51.462;6.692;2024-01-15T16:59:08;100229.72;;;2.77;74.91
9110;BME280;4590;51.462;6.692;2024-01-15T17:01:57;100242.47;;;2.76;74.82
9110;BME280;4590;51.462;6.692;2024-01-15T17:04:42;100243.31;;;2.77;75.37
9110;BME280;4590;51.462;6.692;2024-01-15T17:07:15;100245.47;;;2.75;74.85
9110;BME280;4590;51.462;6.692;2024-01-15T17:09:48;100257.41;;;2.74;75.01
9110;BME280;4590;51.462;6.692;2024-01-15T17:12:29;100251.44;;;2.72;74.58
9110;BME280;4590;51.462;6.692;2024-01-15T17:15:24;100257.69;;;2.72;74.98
9110;BME280;4590;51.462;6.692;2024-01-15T17:18:02;100251.69;;;2.70;75.08
9110;BME280;4590;51.462;6.692;2024-01-15T17:21:15;100257.69;;;2.67;74.64
9110;BME280;4590;51.462;6.692;2024-01-15T17:23:42;100263.63;;;2.69;75.53
9110;BME280;4590;51.462;6.692;2024-01-15T17:26:12;100271.53;;;2.71;75.00
9110;BME280;4590;51.462;6.692;2024-01-15T17:29:09;100281.84;;;2.69;75.27
9110;BME280;4590;51.462;6.692;2024-01-15T17:31:51;100281.88;;;2.74;75.24
9110;BME280;4590;51.462;6.692;2024-01-15T17:34:21;100277.50;;;2.73;75.17
9110;BME280;4590;51.462;6.692;2024-01-15T17:37:27;100285.09;;;2.71;74.80
9110;BME280;4590;51.462;6.692;2024-01-15T17:40:27;100298.44;;;2.72;75.50
9110;BME280;4590;51.462;6.692;2024-01-15T17:43:04;100302.81;;;2.78;75.46
9110;BME280;4590;51.462;6.692;2024-01-15T17:45:39;100304.41;;;2.74;75.61
9110;BME280;4590;51.462;6.692;2024-01-15T17:48:15;100301.16;;;2.77;75.21
9110;BME280;4590;51.462;6.692;2024-01-15T17:51:04;100306.88;;;2.76;75.49
9110;BME280;4590;51.462;6.692;2024-01-15T17:53:37;100298.19;;;2.79;75.41
9110;BME280;4590;51.462;6.692;2024-01-15T17:56:32;100305.81;;;2.82;75.34
9110;BME280;4590;51.462;6.692;2024-01-15T17:59:05;100316.13;;;2.80;75.39
9110;BME280;4590;51.462;6.692;2024-01-15T18:01:53;100320.19;;;2.77;74.75
9110;BME280;4590;51.462;6.692;2024-01-15T18:04:34;100324.25;;;2.75;74.76
9110;BME280;4590;51.462;6.692;2024-01-15T18:07:24;100325.38;;;2.79;75.23
9110;BME280;4590;51.462;6.692;2024-01-15T18:09:52;100327.00;;;2.80;75.33
9110;BME280;4590;51.462;6.692;2024-01-15T18:12:39;100330.78;;;2.79;75.30
9110;BME280;4590;51.462;6.692;2024-01-15T18:15:35;100331.31;;;2.76;74.95
9110;BME280;4590;51.462;6.692;2024-01-15T18:18:11;100337.34;;;2.83;75.46
9110;BME280;4590;51.462;6.692;2024-01-15T18:20:45;100348.47;;;2.87;75.28
9110;BME280;4590;51.462;6.692;2024-01-15T18:23:30;100349.00;;;2.83;75.33
9110;BME280;4590;51.462;6.692;2024-01-15T18:26:38;100345.75;;;2.87;74.90
9110;BME280;4590;51.462;6.692;2024-01-15T18:29:54;100350.16;;;2.93;75.03
9110;BME280;4590;51.462;6.692;2024-01-15T18:32:32;100352.28;;;2.86;75.60
9110;BME280;4590;51.462;6.692;2024-01-15T18:35:07;100350.16;;;2.93;74.97
9110;BME280;4590;51.462;6.692;2024-01-15T18:37:35;100354.78;;;2.97;74.97
9110;BME280;4590;51.462;6.692;2024-01-15T18:40:27;100351.75;;;2.89;75.25
9110;BME280;4590;51.462;6.692;2024-01-15T18:43:29;100352.03;;;2.92;74.35
9110;BME280;4590;51.462;6.692;2024-01-15T18:45:58;100356.94;;;2.95;75.40
9110;BME280;4590;51.462;6.692;2024-01-15T18:48:49;100358.81;;;2.90;74.49
9110;BME280;4590;51.462;6.692;2024-01-15T18:51:45;100362.09;;;2.92;74.54
9110;BME280;4590;51.462;6.692;2024-01-15T18:54:54;100371.56;;;2.84;74.94
9110;BME280;4590;51.462;6.692;2024-01-15T18:57:21;100364.50;;;2.88;75.26
9110;BME280;4590;51.462;6.692;2024-01-15T18:59:49;100380.53;;;2.79;74.75
9110;BME280;4590;51.462;6.692;2024-01-15T19:03:16;100382.41;;;2.79;74.75
9110;BME280;4590;51.462;6.692;2024-01-15T19:05:55;100379.19;;;2.82;74.95
9110;BME280;4590;51.462;6.692;2024-01-15T19:08:33;100385.94;;;2.79;74.66
9110;BME280;4590;51.462;6.692;2024-01-15T19:11:22;100389.16;;;2.71;74.13
9110;BME280;4590;51.462;6.692;2024-01-15T19:14:10;100405.16;;;2.68;74.75
9110;BME280;4590;51.462;6.692;2024-01-15T19:17:10;100391.88;;;2.66;74.79
9110;BME280;4590;51.462;6.692;2024-01-15T19:19:36;100391.06;;;2.71;74.79
9110;BME280;4590;51.462;6.692;2024-01-15T19:22:11;100397.03;;;2.73;75.04
9110;BME280;4590;51.462;6.692;2024-01-15T19:24:38;100395.41;;;2.72;74.33
9110;BME280;4590;51.462;6.692;2024-01-15T19:27:11;100404.38;;;2.67;74.83
9110;BME280;4590;51.462;6.692;2024-01-15T19:29:56;100407.56;;;2.59;74.60
9110;BME280;4590;51.462;6.692;2024-01-15T19:32:27;100404.28;;;2.57;74.83
9110;BME280;4590;51.462;6.692;2024-01-15T19:35:38;100415.44;;;2.61;74.44
9110;BME280;4590;51.462;6.692;2024-01-15T19:38:22;100409.16;;;2.55;73.98
9110;BME280;4590;51.462;6.692;2024-01-15T19:41:19;100419.75;;;2.57;74.05
9110;BME280;4590;51.462;6.692;2024-01-15T19:43:55;100424.06;;;2.53;74.71
9110;BME280;4590;51.462;6.692;2024-01-15T19:46:44;100420.81;;;2.51;74.11
9110;BME280;4590;51.462;6.692;2024-01-15T19:49:24;100427.31;;;2.50;74.37
9110;BME280;4590;51.462;6.692;2024-01-15T19:51:54;100430.31;;;2.48;74.90
9110;BME280;4590;51.462;6.692;2024-01-15T19:54:41;100437.56;;;2.42;74.62
9110;BME280;4590;51.462;6.692;2024-01-15T19:57:16;100426.19;;;2.45;74.61
9110;BME280;4590;51.462;6.692;2024-01-15T20:00:08;100431.84;;;2.39;74.51
9110;BME280;4590;51.462;6.692;2024-01-15T20:03:10;100437.50;;;2.32;74.66
9110;BME280;4590;51.462;6.692;2024-01-15T20:06:10;100439.72;;;2.35;74.33
9110;BME280;4590;51.462;6.692;2024-01-15T20:08:42;100446.75;;;2.36;74.88
9110;BME280;4590;51.462;6.692;2024-01-15T20:11:20;100440.22;;;2.32;74.36
9110;BME280;4590;51.462;6.692;2024-01-15T20:14:18;100444.03;;;2.31;74.39